sensor_id;sensor_type;location;lat;lon;timestamp;P1;durP1;ratioP1;P2;durP2;ratioP2
44110;SDS011;29774;52.664;5.074;2022-09-11T00:00:35;10.43;;;9.43;;
44110;SDS011;29774;52.664;5.074;2022-09-11T00:03:00;10.50;;;9.50;;
44110;SDS011;29774;52.664;5.074;2022-09-11T00:05:26;11.35;;;8.75;;
44110;SDS011;29774;52.664;5.074;2022-09-11T00:07:52;9.80;;;8.80;;
44110;SDS011;29774;52.664;5.074;2022-09-11T00:10:18;9.93;;;8.98;;
44110;SDS011;29774;52.664;5.074;2022-09-11T00:12:43;9.93;;;9.02;;
44110;SDS011;29774;52.664;5.074;2022-09-11T00:15:09;9.68;;;8.77;;
44110;SDS011;29774;52.664;5.074;2022-09-11T00:17:35;11.52;;;10.43;;
44110;SDS011;29774;52.664;5.074;2022-09-11T00:20:01;12.43;;;11.23;;
44110;SDS011;29774;52.664;5.074;2022-09-11T00:22:27;11.05;;;9.63;;
44110;SDS011;29774;52.664;5.074;2022-09-11T00:24:53;10.15;;;9.02;;
44110;SDS011;29774;52.664;5.074;2022-09-11T00:27:19;10.35;;;9.35;;
44110;SDS011;29774;52.664;5.074;2022-09-11T00:29:45;10.18;;;9.27;;
44110;SDS011;29774;52.664;5.074;2022-09-11T00:32:11;9.73;;;8.82;;
44110;SDS011;29774;52.664;5.074;2022-09-11T00:34:36;10.40;;;9.40;;
44110;SDS011;29774;52.664;5.074;2022-09-11T00:37:03;9.80;;;8.82;;
44110;SDS011;29774;52.664;5.074;2022-09-11T00:39:29;10.40;;;9.23;;
44110;SDS011;29774;52.664;5.074;2022-09-11T00:41:54;9.93;;;8.93;;
44110;SDS011;29774;52.664;5.074;2022-09-11T00:51:50;9.75;;;8.85;;
44110;SDS011;29774;52.664;5.074;2022-09-11T00:54:18;9.63;;;8.75;;
44110;SDS011;29774;52.664;5.074;2022-09-11T00:56:55;9.38;;;8.48;;
44110;SDS011;29774;52.664;5.074;2022-09-11T00:59:22;9.45;;;8.55;;
44110;SDS011;29774;52.664;5.074;2022-09-11T01:01:51;10.57;;;9.30;;
44110;SDS011;29774;52.664;5.074;2022-09-11T01:04:17;9.48;;;7.80;;
44110;SDS011;29774;52.664;5.074;2022-09-11T01:06:44;10.40;;;8.02;;
44110;SDS011;29774;52.664;5.074;2022-09-11T01:09:10;8.68;;;7.80;;
44110;SDS011;29774;52.664;5.074;2022-09-11T01:14:28;8.75;;;7.82;;
44110;SDS011;29774;52.664;5.074;2022-09-11T01:18:08;8.40;;;7.60;;
44110;SDS011;29774;52.664;5.074;2022-09-11T01:25:57;9.77;;;7.82;;
44110;SDS011;29774;52.664;5.074;2022-09-11T01:28:29;8.75;;;7.85;;
44110;SDS011;29774;52.664;5.074;2022-09-11T01:31:08;8.82;;;7.28;;
44110;SDS011;29774;52.664;5.074;2022-09-11T01:33:43;11.15;;;7.50;;
44110;SDS011;29774;52.664;5.074;2022-09-11T01:36:21;9.68;;;8.43;;
44110;SDS011;29774;52.664;5.074;2022-09-11T01:38:54;9.32;;;8.43;;
44110;SDS011;29774;52.664;5.074;2022-09-11T01:43:56;9.48;;;8.52;;
44110;SDS011;29774;52.664;5.074;2022-09-11T01:46:27;10.13;;;8.57;;
44110;SDS011;29774;52.664;5.074;2022-09-11T01:49:00;9.75;;;8.80;;
44110;SDS011;29774;52.664;5.074;2022-09-11T01:51:31;9.80;;;8.90;;
44110;SDS011;29774;52.664;5.074;2022-09-11T01:53:59;10.50;;;8.05;;
44110;SDS011;29774;52.664;5.074;2022-09-11T01:56:32;9.35;;;8.45;;
44110;SDS011;29774;52.664;5.074;2022-09-11T01:59:02;9.65;;;8.65;;
44110;SDS011;29774;52.664;5.074;2022-09-11T02:01:34;9.23;;;8.43;;
44110;SDS011;29774;52.664;5.074;2022-09-11T02:04:06;9.25;;;8.45;;
44110;SDS011;29774;52.664;5.074;2022-09-11T02:06:53;10.65;;;7.63;;
44110;SDS011;29774;52.664;5.074;2022-09-11T02:09:28;8.25;;;7.53;;
44110;SDS011;29774;52.664;5.074;2022-09-11T02:11:58;8.38;;;7.57;;
44110;SDS011;29774;52.664;5.074;2022-09-11T02:14:38;7.50;;;6.90;;
44110;SDS011;29774;52.664;5.074;2022-09-11T02:19:35;9.85;;;7.75;;
44110;SDS011;29774;52.664;5.074;2022-09-11T02:22:00;9.15;;;8.02;;
44110;SDS011;29774;52.664;5.074;2022-09-11T02:24:26;8.02;;;7.22;;
44110;SDS011;29774;52.664;5.074;2022-09-11T02:27:02;8.48;;;7.57;;
44110;SDS011;29774;52.664;5.074;2022-09-11T02:29:36;7.82;;;7.00;;
44110;SDS011;29774;52.664;5.074;2022-09-11T02:32:03;8.07;;;6.95;;
44110;SDS011;29774;52.664;5.074;2022-09-11T02:34:30;7.70;;;7.00;;
44110;SDS011;29774;52.664;5.074;2022-09-11T02:37:04;8.13;;;7.43;;
44110;SDS011;29774;52.664;5.074;2022-09-11T02:42:43;7.82;;;7.13;;
44110;SDS011;29774;52.664;5.074;2022-09-11T02:56:21;7.75;;;7.05;;
44110;SDS011;29774;52.664;5.074;2022-09-11T02:59:16;10.48;;;6.93;;
44110;SDS011;29774;52.664;5.074;2022-09-11T03:01:49;7.57;;;6.80;;
44110;SDS011;29774;52.664;5.074;2022-09-11T03:04:17;6.97;;;6.28;;
44110;SDS011;29774;52.664;5.074;2022-09-11T03:06:44;6.18;;;5.68;;
44110;SDS011;29774;52.664;5.074;2022-09-11T03:09:12;7.88;;;6.30;;
44110;SDS011;29774;52.664;5.074;2022-09-11T03:11:38;7.13;;;6.43;;
44110;SDS011;29774;52.664;5.074;2022-09-11T03:14:04;6.75;;;6.22;;
44110;SDS011;29774;52.664;5.074;2022-09-11T03:16:29;8.38;;;6.03;;
44110;SDS011;29774;52.664;5.074;2022-09-11T03:18:55;6.97;;;6.28;;
44110;SDS011;29774;52.664;5.074;2022-09-11T03:21:20;6.93;;;6.25;;
44110;SDS011;29774;52.664;5.074;2022-09-11T03:23:46;7.00;;;6.30;;
44110;SDS011;29774;52.664;5.074;2022-09-11T03:26:11;9.13;;;6.05;;
44110;SDS011;29774;52.664;5.074;2022-09-11T03:28:37;6.28;;;5.68;;
44110;SDS011;29774;52.664;5.074;2022-09-11T03:31:03;6.68;;;6.07;;
44110;SDS011;29774;52.664;5.074;2022-09-11T03:33:30;7.50;;;6.80;;
44110;SDS011;29774;52.664;5.074;2022-09-11T03:35:55;6.97;;;5.72;;
44110;SDS011;29774;52.664;5.074;2022-09-11T03:38:21;6.70;;;5.85;;
44110;SDS011;29774;52.664;5.074;2022-09-11T03:40:47;7.75;;;5.80;;
44110;SDS011;29774;52.664;5.074;2022-09-11T03:43:12;7.22;;;5.60;;
44110;SDS011;29774;52.664;5.074;2022-09-11T03:45:40;6.15;;;5.60;;
44110;SDS011;29774;52.664;5.074;2022-09-11T03:48:06;9.07;;;5.75;;
44110;SDS011;29774;52.664;5.074;2022-09-11T03:50:32;7.22;;;6.50;;
44110;SDS011;29774;52.664;5.074;2022-09-11T03:52:58;8.88;;;5.88;;
44110;SDS011;29774;52.664;5.074;2022-09-11T03:55:23;7.45;;;6.53;;
44110;SDS011;29774;52.664;5.074;2022-09-11T03:57:49;6.78;;;5.50;;
44110;SDS011;29774;52.664;5.074;2022-09-11T04:00:14;7.90;;;6.55;;
44110;SDS011;29774;52.664;5.074;2022-09-11T04:02:40;7.65;;;5.72;;
44110;SDS011;29774;52.664;5.074;2022-09-11T04:05:06;6.03;;;5.43;;
44110;SDS011;29774;52.664;5.074;2022-09-11T04:07:32;7.25;;;5.40;;
44110;SDS011;29774;52.664;5.074;2022-09-11T04:09:58;6.60;;;5.75;;
44110;SDS011;29774;52.664;5.074;2022-09-11T04:12:24;6.20;;;5.60;;
44110;SDS011;29774;52.664;5.074;2022-09-11T04:14:50;6.18;;;5.65;;
44110;SDS011;29774;52.664;5.074;2022-09-11T04:17:15;6.22;;;5.63;;
44110;SDS011;29774;52.664;5.074;2022-09-11T04:19:41;6.00;;;5.50;;
44110;SDS011;29774;52.664;5.074;2022-09-11T04:22:07;6.45;;;5.80;;
44110;SDS011;29774;52.664;5.074;2022-09-11T04:24:33;6.60;;;5.25;;
44110;SDS011;29774;52.664;5.074;2022-09-11T04:26:59;7.43;;;5.88;;
44110;SDS011;29774;52.664;5.074;2022-09-11T04:29:24;5.85;;;5.30;;
44110;SDS011;29774;52.664;5.074;2022-09-11T04:31:51;6.43;;;5.82;;
44110;SDS011;29774;52.664;5.074;2022-09-11T04:34:17;7.68;;;5.68;;
44110;SDS011;29774;52.664;5.074;2022-09-11T04:36:42;7.63;;;5.95;;
44110;SDS011;29774;52.664;5.074;2022-09-11T04:39:08;7.65;;;5.97;;
44110;SDS011;29774;52.664;5.074;2022-09-11T04:41:35;6.10;;;5.60;;
44110;SDS011;29774;52.664;5.074;2022-09-11T04:44:00;6.28;;;5.65;;
44110;SDS011;29774;52.664;5.074;2022-09-11T04:46:26;6.57;;;5.97;;
44110;SDS011;29774;52.664;5.074;2022-09-11T04:48:53;9.95;;;5.95;;
44110;SDS011;29774;52.664;5.074;2022-09-11T04:51:24;6.40;;;5.65;;
44110;SDS011;29774;52.664;5.074;2022-09-11T04:53:54;8.98;;;6.15;;
44110;SDS011;29774;52.664;5.074;2022-09-11T04:56:21;6.65;;;6.05;;
44110;SDS011;29774;52.664;5.074;2022-09-11T04:58:55;6.75;;;5.97;;
44110;SDS011;29774;52.664;5.074;2022-09-11T05:01:23;6.63;;;6.03;;
44110;SDS011;29774;52.664;5.074;2022-09-11T05:03:50;6.18;;;5.68;;
44110;SDS011;29774;52.664;5.074;2022-09-11T05:06:17;6.78;;;6.05;;
44110;SDS011;29774;52.664;5.074;2022-09-11T05:08:43;7.80;;;5.80;;
44110;SDS011;29774;52.664;5.074;2022-09-11T05:11:14;6.32;;;5.78;;
44110;SDS011;29774;52.664;5.074;2022-09-11T05:13:41;6.68;;;5.70;;
44110;SDS011;29774;52.664;5.074;2022-09-11T05:16:09;8.52;;;5.32;;
44110;SDS011;29774;52.664;5.074;2022-09-11T05:18:36;5.85;;;5.28;;
44110;SDS011;29774;52.664;5.074;2022-09-11T05:21:03;7.22;;;5.75;;
44110;SDS011;29774;52.664;5.074;2022-09-11T05:23:30;7.97;;;5.78;;
44110;SDS011;29774;52.664;5.074;2022-09-11T05:26:00;7.75;;;5.65;;
44110;SDS011;29774;52.664;5.074;2022-09-11T05:28:28;6.45;;;5.88;;
44110;SDS011;29774;52.664;5.074;2022-09-11T05:30:55;8.75;;;5.03;;
44110;SDS011;29774;52.664;5.074;2022-09-11T05:33:22;6.05;;;5.55;;
44110;SDS011;29774;52.664;5.074;2022-09-11T05:35:49;6.63;;;4.70;;
44110;SDS011;29774;52.664;5.074;2022-09-11T05:38:15;6.93;;;5.57;;
44110;SDS011;29774;52.664;5.074;2022-09-11T05:40:47;5.60;;;4.80;;
44110;SDS011;29774;52.664;5.074;2022-09-11T05:43:14;4.85;;;4.45;;
44110;SDS011;29774;52.664;5.074;2022-09-11T05:45:41;12.75;;;5.10;;
44110;SDS011;29774;52.664;5.074;2022-09-11T05:48:08;17.35;;;5.90;;
44110;SDS011;29774;52.664;5.074;2022-09-11T05:50:35;4.93;;;4.10;;
44110;SDS011;29774;52.664;5.074;2022-09-11T05:53:00;53.08;;;7.38;;
44110;SDS011;29774;52.664;5.074;2022-09-11T05:55:26;9.10;;;4.72;;
44110;SDS011;29774;52.664;5.074;2022-09-11T05:57:52;18.05;;;5.55;;
44110;SDS011;29774;52.664;5.074;2022-09-11T06:00:18;20.35;;;6.20;;
44110;SDS011;29774;52.664;5.074;2022-09-11T06:02:45;18.30;;;6.50;;
44110;SDS011;29774;52.664;5.074;2022-09-11T06:05:12;71.30;;;8.45;;
44110;SDS011;29774;52.664;5.074;2022-09-11T06:07:38;94.90;;;9.60;;
44110;SDS011;29774;52.664;5.074;2022-09-11T06:10:04;125.25;;;10.13;;
44110;SDS011;29774;52.664;5.074;2022-09-11T06:12:30;75.43;;;8.25;;
44110;SDS011;29774;52.664;5.074;2022-09-11T06:14:55;123.50;;;10.90;;
44110;SDS011;29774;52.664;5.074;2022-09-11T06:17:21;73.82;;;8.88;;
44110;SDS011;29774;52.664;5.074;2022-09-11T06:19:47;186.07;;;13.02;;
44110;SDS011;29774;52.664;5.074;2022-09-11T06:22:12;66.88;;;9.43;;
44110;SDS011;29774;52.664;5.074;2022-09-11T06:24:38;82.80;;;9.07;;
44110;SDS011;29774;52.664;5.074;2022-09-11T06:27:03;12.82;;;6.00;;
44110;SDS011;29774;52.664;5.074;2022-09-11T06:29:29;8.85;;;5.65;;
44110;SDS011;29774;52.664;5.074;2022-09-11T06:31:57;6.60;;;6.00;;
44110;SDS011;29774;52.664;5.074;2022-09-11T06:34:24;6.47;;;5.88;;
44110;SDS011;29774;52.664;5.074;2022-09-11T06:36:50;6.35;;;5.72;;
44110;SDS011;29774;52.664;5.074;2022-09-11T06:39:16;5.90;;;5.45;;
44110;SDS011;29774;52.664;5.074;2022-09-11T06:41:44;6.18;;;5.57;;
44110;SDS011;29774;52.664;5.074;2022-09-11T06:44:10;6.47;;;5.95;;
44110;SDS011;29774;52.664;5.074;2022-09-11T06:46:36;8.52;;;5.93;;
44110;SDS011;29774;52.664;5.074;2022-09-11T06:49:04;7.07;;;6.03;;
44110;SDS011;29774;52.664;5.074;2022-09-11T06:51:30;9.07;;;5.85;;
44110;SDS011;29774;52.664;5.074;2022-09-11T06:53:56;6.03;;;5.53;;
44110;SDS011;29774;52.664;5.074;2022-09-11T06:56:26;7.63;;;6.22;;
44110;SDS011;29774;52.664;5.074;2022-09-11T06:58:53;7.53;;;5.47;;
44110;SDS011;29774;52.664;5.074;2022-09-11T07:01:19;6.57;;;5.90;;
44110;SDS011;29774;52.664;5.074;2022-09-11T07:03:46;6.55;;;5.57;;
44110;SDS011;29774;52.664;5.074;2022-09-11T07:06:17;6.68;;;6.07;;
44110;SDS011;29774;52.664;5.074;2022-09-11T07:08:50;7.75;;;7.05;;
44110;SDS011;29774;52.664;5.074;2022-09-11T07:11:17;6.47;;;4.65;;
44110;SDS011;29774;52.664;5.074;2022-09-11T07:13:43;6.03;;;5.43;;
44110;SDS011;29774;52.664;5.074;2022-09-11T07:16:09;6.85;;;5.03;;
44110;SDS011;29774;52.664;5.074;2022-09-11T07:18:37;6.93;;;5.72;;
44110;SDS011;29774;52.664;5.074;2022-09-11T07:21:06;6.55;;;5.20;;
44110;SDS011;29774;52.664;5.074;2022-09-11T07:23:34;7.35;;;5.20;;
44110;SDS011;29774;52.664;5.074;2022-09-11T07:26:01;7.47;;;5.05;;
44110;SDS011;29774;52.664;5.074;2022-09-11T07:28:31;6.85;;;5.32;;
44110;SDS011;29774;52.664;5.074;2022-09-11T07:31:03;6.25;;;4.82;;
44110;SDS011;29774;52.664;5.074;2022-09-11T07:33:29;4.07;;;3.67;;
44110;SDS011;29774;52.664;5.074;2022-09-11T07:35:54;3.83;;;2.85;;
44110;SDS011;29774;52.664;5.074;2022-09-11T07:38:20;3.03;;;2.28;;
44110;SDS011;29774;52.664;5.074;2022-09-11T07:40:45;4.55;;;2.88;;
44110;SDS011;29774;52.664;5.074;2022-09-11T07:43:11;5.15;;;2.90;;
44110;SDS011;29774;52.664;5.074;2022-09-11T07:45:37;2.38;;;1.65;;
44110;SDS011;29774;52.664;5.074;2022-09-11T07:48:03;4.45;;;2.78;;
44110;SDS011;29774;52.664;5.074;2022-09-11T07:50:30;4.55;;;3.28;;
44110;SDS011;29774;52.664;5.074;2022-09-11T07:52:57;3.90;;;2.33;;
44110;SDS011;29774;52.664;5.074;2022-09-11T07:55:22;2.95;;;1.33;;
44110;SDS011;29774;52.664;5.074;2022-09-11T07:57:48;4.35;;;2.95;;
44110;SDS011;29774;52.664;5.074;2022-09-11T08:00:16;4.18;;;2.92;;
44110;SDS011;29774;52.664;5.074;2022-09-11T08:02:41;1.92;;;1.63;;
44110;SDS011;29774;52.664;5.074;2022-09-11T08:05:07;3.33;;;1.90;;
44110;SDS011;29774;52.664;5.074;2022-09-11T08:07:33;3.42;;;1.20;;
44110;SDS011;29774;52.664;5.074;2022-09-11T08:09:58;3.17;;;1.83;;
44110;SDS011;29774;52.664;5.074;2022-09-11T08:12:24;2.78;;;2.15;;
44110;SDS011;29774;52.664;5.074;2022-09-11T08:14:49;3.92;;;2.20;;
44110;SDS011;29774;52.664;5.074;2022-09-11T08:17:15;2.60;;;1.25;;
44110;SDS011;29774;52.664;5.074;2022-09-11T08:19:40;2.33;;;1.05;;
44110;SDS011;29774;52.664;5.074;2022-09-11T08:22:06;3.60;;;2.17;;
44110;SDS011;29774;52.664;5.074;2022-09-11T08:24:32;2.20;;;1.30;;
44110;SDS011;29774;52.664;5.074;2022-09-11T08:26:58;3.88;;;1.60;;
44110;SDS011;29774;52.664;5.074;2022-09-11T08:29:24;3.45;;;1.25;;
44110;SDS011;29774;52.664;5.074;2022-09-11T08:31:50;3.00;;;2.03;;
44110;SDS011;29774;52.664;5.074;2022-09-11T08:34:15;2.22;;;1.08;;
44110;SDS011;29774;52.664;5.074;2022-09-11T08:36:41;2.75;;;1.77;;
44110;SDS011;29774;52.664;5.074;2022-09-11T08:39:07;2.83;;;1.63;;
44110;SDS011;29774;52.664;5.074;2022-09-11T08:44:21;2.85;;;1.50;;
44110;SDS011;29774;52.664;5.074;2022-09-11T08:46:54;3.63;;;1.70;;
44110;SDS011;29774;52.664;5.074;2022-09-11T08:49:27;3.05;;;2.30;;
44110;SDS011;29774;52.664;5.074;2022-09-11T08:52:03;2.50;;;1.88;;
44110;SDS011;29774;52.664;5.074;2022-09-11T08:54:34;3.83;;;1.67;;
44110;SDS011;29774;52.664;5.074;2022-09-11T09:03:18;3.22;;;1.60;;
44110;SDS011;29774;52.664;5.074;2022-09-11T09:05:47;2.50;;;1.98;;
44110;SDS011;29774;52.664;5.074;2022-09-11T09:11:25;3.90;;;1.63;;
44110;SDS011;29774;52.664;5.074;2022-09-11T09:14:04;1.27;;;1.00;;
44110;SDS011;29774;52.664;5.074;2022-09-11T09:19:11;2.70;;;1.50;;
44110;SDS011;29774;52.664;5.074;2022-09-11T09:21:54;1.17;;;1.00;;
44110;SDS011;29774;52.664;5.074;2022-09-11T09:24:32;1.75;;;1.20;;
44110;SDS011;29774;52.664;5.074;2022-09-11T09:27:04;1.23;;;1.05;;
44110;SDS011;29774;52.664;5.074;2022-09-11T09:29:32;1.40;;;1.08;;
44110;SDS011;29774;52.664;5.074;2022-09-11T09:32:05;1.27;;;1.10;;
44110;SDS011;29774;52.664;5.074;2022-09-11T09:34:35;1.42;;;1.15;;
44110;SDS011;29774;52.664;5.074;2022-09-11T09:37:04;1.95;;;1.48;;
44110;SDS011;29774;52.664;5.074;2022-09-11T09:39:39;3.15;;;1.15;;
44110;SDS011;29774;52.664;5.074;2022-09-11T09:47:36;2.15;;;1.25;;
44110;SDS011;29774;52.664;5.074;2022-09-11T09:50:15;1.77;;;1.15;;
44110;SDS011;29774;52.664;5.074;2022-09-11T09:52:50;4.45;;;2.53;;
44110;SDS011;29774;52.664;5.074;2022-09-11T09:55:23;1.73;;;1.50;;
44110;SDS011;29774;52.664;5.074;2022-09-11T09:57:49;1.63;;;1.10;;
44110;SDS011;29774;52.664;5.074;2022-09-11T10:00:16;0.98;;;0.98;;
44110;SDS011;29774;52.664;5.074;2022-09-11T10:02:46;1.40;;;1.00;;
44110;SDS011;29774;52.664;5.074;2022-09-11T10:05:17;2.95;;;1.10;;
44110;SDS011;29774;52.664;5.074;2022-09-11T10:07:50;1.63;;;1.23;;
44110;SDS011;29774;52.664;5.074;2022-09-11T10:10:36;3.00;;;1.70;;
44110;SDS011;29774;52.664;5.074;2022-09-11T10:13:05;1.10;;;1.00;;
44110;SDS011;29774;52.664;5.074;2022-09-11T10:15:53;2.55;;;1.70;;
44110;SDS011;29774;52.664;5.074;2022-09-11T10:18:38;2.65;;;1.50;;
44110;SDS011;29774;52.664;5.074;2022-09-11T10:29:00;1.95;;;1.38;;
44110;SDS011;29774;52.664;5.074;2022-09-11T10:31:37;2.85;;;1.70;;
44110;SDS011;29774;52.664;5.074;2022-09-11T10:34:05;3.70;;;1.80;;
44110;SDS011;29774;52.664;5.074;2022-09-11T10:36:31;1.88;;;1.13;;
44110;SDS011;29774;52.664;5.074;2022-09-11T10:38:59;2.30;;;1.25;;
44110;SDS011;29774;52.664;5.074;2022-09-11T10:41:26;1.80;;;1.67;;
44110;SDS011;29774;52.664;5.074;2022-09-11T10:46:38;2.45;;;1.20;;
44110;SDS011;29774;52.664;5.074;2022-09-11T10:51:55;3.08;;;1.30;;
44110;SDS011;29774;52.664;5.074;2022-09-11T10:54:38;2.63;;;1.20;;
44110;SDS011;29774;52.664;5.074;2022-09-11T10:59:54;1.30;;;1.00;;
44110;SDS011;29774;52.664;5.074;2022-09-11T11:02:38;1.40;;;1.30;;
44110;SDS011;29774;52.664;5.074;2022-09-11T11:05:10;2.05;;;1.40;;
44110;SDS011;29774;52.664;5.074;2022-09-11T11:07:52;0.93;;;0.82;;
44110;SDS011;29774;52.664;5.074;2022-09-11T11:21:53;0.80;;;0.77;;
44110;SDS011;29774;52.664;5.074;2022-09-11T11:24:33;2.17;;;1.10;;
44110;SDS011;29774;52.664;5.074;2022-09-11T11:30:17;1.08;;;0.95;;
44110;SDS011;29774;52.664;5.074;2022-09-11T11:32:54;0.90;;;0.77;;
44110;SDS011;29774;52.664;5.074;2022-09-11T11:35:29;3.58;;;1.65;;
44110;SDS011;29774;52.664;5.074;2022-09-11T11:38:19;1.88;;;0.90;;
44110;SDS011;29774;52.664;5.074;2022-09-11T11:41:13;1.40;;;1.27;;
44110;SDS011;29774;52.664;5.074;2022-09-11T11:43:44;1.05;;;0.80;;
44110;SDS011;29774;52.664;5.074;2022-09-11T11:48:54;1.95;;;1.27;;
44110;SDS011;29774;52.664;5.074;2022-09-11T11:51:29;1.95;;;0.82;;
44110;SDS011;29774;52.664;5.074;2022-09-11T11:54:11;2.22;;;1.20;;
44110;SDS011;29774;52.664;5.074;2022-09-11T11:56:50;4.82;;;1.45;;
44110;SDS011;29774;52.664;5.074;2022-09-11T11:59:23;3.95;;;1.50;;
44110;SDS011;29774;52.664;5.074;2022-09-11T12:07:01;2.67;;;1.10;;
44110;SDS011;29774;52.664;5.074;2022-09-11T12:09:28;3.28;;;0.80;;
44110;SDS011;29774;52.664;5.074;2022-09-11T12:11:55;2.78;;;1.20;;
44110;SDS011;29774;52.664;5.074;2022-09-11T12:14:28;2.80;;;1.20;;
44110;SDS011;29774;52.664;5.074;2022-09-11T12:22:37;1.30;;;1.00;;
44110;SDS011;29774;52.664;5.074;2022-09-11T12:25:04;1.92;;;1.23;;
44110;SDS011;29774;52.664;5.074;2022-09-11T12:36:07;3.10;;;2.17;;
44110;SDS011;29774;52.664;5.074;2022-09-11T12:38:41;1.25;;;1.00;;
44110;SDS011;29774;52.664;5.074;2022-09-11T12:41:27;1.33;;;1.23;;
44110;SDS011;29774;52.664;5.074;2022-09-11T12:43:54;2.45;;;1.23;;
44110;SDS011;29774;52.664;5.074;2022-09-11T12:48:56;1.40;;;1.00;;
44110;SDS011;29774;52.664;5.074;2022-09-11T12:53:57;1.17;;;1.00;;
44110;SDS011;29774;52.664;5.074;2022-09-11T12:56:46;1.65;;;1.38;;
44110;SDS011;29774;52.664;5.074;2022-09-11T12:59:25;1.55;;;1.00;;
44110;SDS011;29774;52.664;5.074;2022-09-11T13:01:55;1.40;;;1.20;;
44110;SDS011;29774;52.664;5.074;2022-09-11T13:04:26;3.92;;;1.20;;
44110;SDS011;29774;52.664;5.074;2022-09-11T13:07:01;1.67;;;1.23;;
44110;SDS011;29774;52.664;5.074;2022-09-11T13:09:38;3.40;;;1.67;;
44110;SDS011;29774;52.664;5.074;2022-09-11T13:14:50;1.33;;;1.10;;
44110;SDS011;29774;52.664;5.074;2022-09-11T13:17:27;1.20;;;1.10;;
44110;SDS011;29774;52.664;5.074;2022-09-11T13:22:33;1.23;;;1.10;;
44110;SDS011;29774;52.664;5.074;2022-09-11T13:27:38;2.97;;;1.50;;
44110;SDS011;29774;52.664;5.074;2022-09-11T13:30:07;2.00;;;1.70;;
44110;SDS011;29774;52.664;5.074;2022-09-11T13:32:39;2.72;;;1.40;;
44110;SDS011;29774;52.664;5.074;2022-09-11T13:35:08;1.55;;;1.02;;
44110;SDS011;29774;52.664;5.074;2022-09-11T13:43:08;2.85;;;1.55;;
44110;SDS011;29774;52.664;5.074;2022-09-11T13:45:44;5.65;;;1.83;;
44110;SDS011;29774;52.664;5.074;2022-09-11T13:48:19;3.38;;;1.50;;
44110;SDS011;29774;52.664;5.074;2022-09-11T13:50:47;2.13;;;1.65;;
44110;SDS011;29774;52.664;5.074;2022-09-11T13:53:14;3.65;;;1.85;;
44110;SDS011;29774;52.664;5.074;2022-09-11T13:55:47;4.22;;;2.00;;
44110;SDS011;29774;52.664;5.074;2022-09-11T13:58:24;3.92;;;1.70;;
44110;SDS011;29774;52.664;5.074;2022-09-11T14:01:07;4.40;;;1.75;;
44110;SDS011;29774;52.664;5.074;2022-09-11T14:03:41;5.07;;;1.98;;
44110;SDS011;29774;52.664;5.074;2022-09-11T14:06:12;2.63;;;1.92;;
44110;SDS011;29774;52.664;5.074;2022-09-11T14:08:41;2.38;;;1.63;;
44110;SDS011;29774;52.664;5.074;2022-09-11T14:11:23;1.52;;;1.42;;
44110;SDS011;29774;52.664;5.074;2022-09-11T14:16:36;4.00;;;1.80;;
44110;SDS011;29774;52.664;5.074;2022-09-11T14:21:46;1.88;;;1.30;;
44110;SDS011;29774;52.664;5.074;2022-09-11T14:24:32;3.67;;;2.20;;
44110;SDS011;29774;52.664;5.074;2022-09-11T14:27:04;3.53;;;1.40;;
44110;SDS011;29774;52.664;5.074;2022-09-11T14:29:54;2.30;;;1.77;;
44110;SDS011;29774;52.664;5.074;2022-09-11T14:32:29;3.13;;;1.80;;
44110;SDS011;29774;52.664;5.074;2022-09-11T14:34:55;3.03;;;1.63;;
44110;SDS011;29774;52.664;5.074;2022-09-11T14:37:22;2.63;;;1.83;;
44110;SDS011;29774;52.664;5.074;2022-09-11T14:39:52;3.40;;;1.23;;
44110;SDS011;29774;52.664;5.074;2022-09-11T14:42:22;3.88;;;1.65;;
44110;SDS011;29774;52.664;5.074;2022-09-11T14:44:51;2.33;;;1.90;;
44110;SDS011;29774;52.664;5.074;2022-09-11T14:47:20;4.70;;;1.88;;
44110;SDS011;29774;52.664;5.074;2022-09-11T14:49:47;1.17;;;1.08;;
44110;SDS011;29774;52.664;5.074;2022-09-11T14:52:16;1.77;;;1.30;;
44110;SDS011;29774;52.664;5.074;2022-09-11T14:54:44;2.08;;;1.48;;
44110;SDS011;29774;52.664;5.074;2022-09-11T14:57:15;1.33;;;1.10;;
44110;SDS011;29774;52.664;5.074;2022-09-11T14:59:46;4.55;;;1.85;;
44110;SDS011;29774;52.664;5.074;2022-09-11T15:02:17;3.78;;;1.52;;
44110;SDS011;29774;52.664;5.074;2022-09-11T15:04:45;4.22;;;2.10;;
44110;SDS011;29774;52.664;5.074;2022-09-11T15:07:12;2.05;;;1.55;;
44110;SDS011;29774;52.664;5.074;2022-09-11T15:09:39;3.58;;;1.58;;
44110;SDS011;29774;52.664;5.074;2022-09-11T15:12:06;5.32;;;1.88;;
44110;SDS011;29774;52.664;5.074;2022-09-11T15:14:33;4.07;;;1.73;;
44110;SDS011;29774;52.664;5.074;2022-09-11T15:16:59;5.82;;;1.90;;
44110;SDS011;29774;52.664;5.074;2022-09-11T15:19:27;2.45;;;1.40;;
44110;SDS011;29774;52.664;5.074;2022-09-11T15:21:53;2.38;;;1.40;;
44110;SDS011;29774;52.664;5.074;2022-09-11T15:24:20;2.63;;;1.42;;
44110;SDS011;29774;52.664;5.074;2022-09-11T15:26:48;3.53;;;1.67;;
44110;SDS011;29774;52.664;5.074;2022-09-11T15:29:15;5.75;;;2.00;;
44110;SDS011;29774;52.664;5.074;2022-09-11T15:31:41;3.83;;;2.13;;
44110;SDS011;29774;52.664;5.074;2022-09-11T15:34:07;2.53;;;1.50;;
44110;SDS011;29774;52.664;5.074;2022-09-11T15:36:34;1.50;;;1.40;;
44110;SDS011;29774;52.664;5.074;2022-09-11T15:39:04;2.75;;;1.73;;
44110;SDS011;29774;52.664;5.074;2022-09-11T15:41:30;3.75;;;1.88;;
44110;SDS011;29774;52.664;5.074;2022-09-11T15:43:56;2.58;;;2.08;;
44110;SDS011;29774;52.664;5.074;2022-09-11T15:46:21;2.10;;;1.50;;
44110;SDS011;29774;52.664;5.074;2022-09-11T15:48:48;3.22;;;1.50;;
44110;SDS011;29774;52.664;5.074;2022-09-11T15:51:15;3.00;;;1.65;;
44110;SDS011;29774;52.664;5.074;2022-09-11T15:53:42;1.73;;;1.40;;
44110;SDS011;29774;52.664;5.074;2022-09-11T15:56:14;6.40;;;1.90;;
44110;SDS011;29774;52.664;5.074;2022-09-11T15:58:42;2.08;;;1.75;;
44110;SDS011;29774;52.664;5.074;2022-09-11T16:01:28;2.42;;;1.70;;
44110;SDS011;29774;52.664;5.074;2022-09-11T16:04:02;4.47;;;1.83;;
44110;SDS011;29774;52.664;5.074;2022-09-11T16:06:31;2.47;;;1.90;;
44110;SDS011;29774;52.664;5.074;2022-09-11T16:08:59;2.05;;;1.67;;
44110;SDS011;29774;52.664;5.074;2022-09-11T16:11:28;4.47;;;2.05;;
44110;SDS011;29774;52.664;5.074;2022-09-11T16:13:55;4.65;;;1.90;;
44110;SDS011;29774;52.664;5.074;2022-09-11T16:16:21;1.40;;;1.20;;
44110;SDS011;29774;52.664;5.074;2022-09-11T16:18:48;6.43;;;1.60;;
44110;SDS011;29774;52.664;5.074;2022-09-11T16:21:14;4.10;;;1.60;;
44110;SDS011;29774;52.664;5.074;2022-09-11T16:23:42;3.55;;;1.48;;
44110;SDS011;29774;52.664;5.074;2022-09-11T16:26:10;2.53;;;2.15;;
44110;SDS011;29774;52.664;5.074;2022-09-11T16:28:45;3.13;;;1.63;;
44110;SDS011;29774;52.664;5.074;2022-09-11T16:31:11;2.08;;;1.88;;
44110;SDS011;29774;52.664;5.074;2022-09-11T16:33:41;4.75;;;1.90;;
44110;SDS011;29774;52.664;5.074;2022-09-11T16:36:19;2.85;;;2.10;;
44110;SDS011;29774;52.664;5.074;2022-09-11T16:38:45;1.77;;;1.08;;
44110;SDS011;29774;52.664;5.074;2022-09-11T16:41:15;1.13;;;1.13;;
44110;SDS011;29774;52.664;5.074;2022-09-11T16:43:43;1.33;;;0.85;;
44110;SDS011;29774;52.664;5.074;2022-09-11T16:46:11;1.63;;;1.10;;
44110;SDS011;29774;52.664;5.074;2022-09-11T16:48:39;4.00;;;1.70;;
44110;SDS011;29774;52.664;5.074;2022-09-11T16:51:05;2.00;;;1.20;;
44110;SDS011;29774;52.664;5.074;2022-09-11T16:53:32;1.30;;;1.20;;
44110;SDS011;29774;52.664;5.074;2022-09-11T16:55:59;1.15;;;1.05;;
44110;SDS011;29774;52.664;5.074;2022-09-11T16:58:28;1.52;;;1.00;;
44110;SDS011;29774;52.664;5.074;2022-09-11T17:00:54;2.22;;;1.10;;
44110;SDS011;29774;52.664;5.074;2022-09-11T17:03:20;1.40;;;1.13;;
44110;SDS011;29774;52.664;5.074;2022-09-11T17:05:47;2.47;;;1.30;;
44110;SDS011;29774;52.664;5.074;2022-09-11T17:08:14;3.38;;;2.13;;
44110;SDS011;29774;52.664;5.074;2022-09-11T17:10:41;3.88;;;1.85;;